• Join FlightAware (Why Join?)
  • Login
  • US Flag 
Rudolph Flight #1: Arrived! 
09:37PM EST


 

Airport Tracker/Info


-or-


 

Live Flight TrackerFlight Track Log ✈ N717AT ✈ 21-Aug-2013 ✈ KBNA - KVBT

Flight Track Log - Related Links

Times and Time Zones

All times are in EDT time to prevent confusion due to time zone crossing. See the N717AT flight status page for this flight to view local times or setup timezone preferences in your user account.

Time Position Orientation Groundspeed Altitude Reporting Facility
EDT Latitude Longitude Course Direction KTS MPH feet Rate Location/Type
07:51AM 36.1167 -86.6833 219° Southwest 77 89 900  Level Nashville TRACON
07:51AM 36.1000 -86.7000 219° Southwest 89 102 1,300 660 Climbing Nashville TRACON
07:52AM 36.1000 -86.7333 270° West 87 100 2,000 600 Climbing Nashville TRACON
07:53AM 36.1000 -86.7667 270° West 88 101 2,500 540 Climbing Nashville TRACON
07:54AM 36.1000 -86.7833 270° West 90 104 3,100 540 Climbing Nashville TRACON
07:55AM 36.1000 -86.8167 270° West 94 108 3,600 480 Climbing Nashville TRACON
07:56AM 36.1000 -86.8500 270° West 98 113 4,100 480 Climbing Nashville TRACON
07:57AM 36.1000 -86.8833 270° West 99 114 4,600 600 Climbing Nashville TRACON
07:58AM 36.1000 -86.9167 270° West 99 114 5,300 600 Climbing Nashville TRACON
07:59AM 36.1000 -86.9500 270° West 99 114 5,900 360 Climbing Nashville TRACON
08:00AM 36.1167 -87.0000 292° West 103 119 6,100  Climbing Nashville TRACON
08:02AM 36.1186 -87.0528 273° West 128 147 6,000 -120 Descending Memphis Center
08:03AM 36.1219 -87.0989 275° West 134 154 5,900 -60 Descending Memphis Center
08:04AM 36.1253 -87.1450 275° West 139 160 5,900  Level Memphis Center
08:05AM 36.1325 -87.1833 283° West 139 160 5,900  Level Memphis Center
08:06AM 36.1358 -87.2269 275° West 139 160 5,900  Level Memphis Center
08:07AM 36.1389 -87.2703 275° West 139 160 6,000  Climbing Memphis Center
08:08AM 36.1419 -87.3114 275° West 133 153 6,000  Level Memphis Center
08:09AM 36.1472 -87.3547 279° West 128 147 6,000  Level Memphis Center
08:10AM 36.1503 -87.3983 275° West 128 147 6,000  Level Memphis Center
08:11AM 36.1536 -87.4447 275° West 128 147 6,000  Level Memphis Center
08:12AM 36.1567 -87.4908 275° West 123 142 6,000  Level Memphis Center
08:13AM 36.1578 -87.5344 272° West 123 142 6,100  Climbing Memphis Center
08:14AM 36.1608 -87.5781 275° West 128 147 6,100  Level Memphis Center
08:15AM 36.1597 -87.6217 268° West 128 147 6,100  Level Memphis Center
08:16AM 36.1628 -87.6653 275° West 128 147 6,100  Level Memphis Center
08:17AM 36.1617 -87.7092 268° West 128 147 6,100  Level Memphis Center
08:18AM 36.1667 -87.7553 278° West 128 147 6,100  Level Memphis Center
08:19AM 36.1717 -87.7989 278° West 133 153 6,100  Level Memphis Center
08:20AM 36.1767 -87.8397 279° West 133 153 6,100 -60 Level Memphis Center
08:21AM 36.1797 -87.8858 275° West 138 159 6,000 -60 Descending Memphis Center
08:22AM 36.1828 -87.9269 275° West 138 159 6,000  Level Memphis Center
08:23AM 36.1878 -87.9731 278° West 138 159 6,000 -60 Level Memphis Center
08:24AM 36.1908 -88.0194 275° West 138 159 5,900 -60 Descending Memphis Center
08:25AM 36.1956 -88.0603 278° West 138 159 5,900  Level Memphis Center
08:26AM 36.1967 -88.1092 272° West 138 159 5,900  Level Memphis Center
08:27AM 36.1994 -88.1503 275° West 138 159 5,900  Level Memphis Center
08:28AM 36.2022 -88.1939 275° West 138 159 5,900  Level Memphis Center
08:29AM 36.2050 -88.2375 275° West 138 159 5,900  Level Memphis Center
08:30AM 36.2058 -88.2811 271° West 138 159 6,000  Climbing Memphis Center
08:31AM 36.2044 -88.3250 268° West 138 159 6,000  Level Memphis Center
08:32AM 36.2072 -88.3686 275° West 138 159 6,000  Level Memphis Center
08:33AM 36.2078 -88.4125 271° West 138 159 6,000  Level Memphis Center
08:34AM 36.2106 -88.4533 275° West 138 159 6,000  Level Memphis Center
08:35AM 36.2114 -88.4972 271° West 138 159 6,000  Level Memphis Center
08:36AM 36.2119 -88.5433 271° West 138 159 6,000  Level Memphis Center
08:37AM 36.2106 -88.5897 268° West 138 159 6,100  Climbing Memphis Center
08:38AM 36.2092 -88.6336 268° West 138 159 6,100 -60 Level Memphis Center
08:39AM 36.2078 -88.6800 268° West 138 159 6,000 -60 Descending Memphis Center
08:40AM 36.2083 -88.7236 271° West 138 159 6,000  Level Memphis Center
08:41AM 36.2047 -88.7675 264° West 138 159 6,000  Level Memphis Center
08:42AM 36.2072 -88.8111 274° West 138 159 6,000  Level Memphis Center
08:43AM 36.2100 -88.8547 275° West 138 159 6,000  Level Memphis Center
08:44AM 36.2125 -88.8983 274° West 138 159 6,000  Level Memphis Center
08:45AM 36.2172 -88.9419 278° West 138 159 6,000  Level Memphis Center
08:46AM 36.2219 -88.9883 277° West 138 159 6,000  Level Memphis Center
08:47AM 36.2244 -89.0319 274° West 138 159 6,000  Level Memphis Center
08:48AM 36.2269 -89.0731 274° West 138 159 6,000  Level Memphis Center
08:49AM 36.2294 -89.1194 274° West 138 159 6,000  Level Memphis Center
08:50AM 36.2342 -89.1656 277° West 138 159 6,100  Climbing Memphis Center
08:51AM 36.2367 -89.2094 274° West 138 159 6,000 -60 Descending Memphis Center
08:52AM 36.2369 -89.2556 270° West 138 159 6,000  Level Memphis Center
08:53AM 36.2394 -89.3019 274° West 138 159 6,000 -60 Level Memphis Center
08:54AM 36.2419 -89.3483 274° West 138 159 5,900 -60 Descending Memphis Center
08:55AM 36.2444 -89.3919 274° West 138 159 5,900  Level Memphis Center
08:56AM 36.2489 -89.4383 277° West 138 159 6,000  Climbing Memphis Center
08:57AM 36.2514 -89.4794 274° West 138 159 6,000  Level Memphis Center
08:58AM 36.2539 -89.5258 274° West 138 159 6,100  Climbing Memphis Center
08:59AM 36.2583 -89.5694 277° West 143 165 6,100 -60 Level Memphis Center
09:00AM 36.2606 -89.6156 273° West 143 165 6,000 -60 Descending Memphis Center
09:01AM 36.2650 -89.6619 277° West 143 165 6,000  Level Memphis Center
09:02AM 36.2675 -89.7083 274° West 143 165 6,000  Level Memphis Center
09:03AM 36.2717 -89.7547 276° West 143 165 6,000  Level Memphis Center
09:04AM 36.2742 -89.7983 274° West 143 165 6,000  Level Memphis Center
09:05AM 36.2764 -89.8447 273° West 143 165 6,000  Level Memphis Center
09:06AM 36.2808 -89.8936 276° West 143 165 6,000  Level Memphis Center
09:07AM 36.2808 -89.9372 270° West 143 165 6,000  Level Memphis Center
09:08AM 36.2831 -89.9836 273° West 143 165 6,000  Level Memphis Center
09:09AM 36.2875 -90.0325 276° West 143 165 6,000  Level Memphis Center
09:10AM 36.2875 -90.0764 270° West 138 159 6,000  Level Memphis Center
09:11AM 36.2897 -90.1200 274° West 138 159 6,000  Level Memphis Center
09:12AM 36.2897 -90.1639 270° West 138 159 6,000  Level Memphis Center
09:13AM 36.2919 -90.2103 273° West 138 159 6,000  Level Memphis Center
09:14AM 36.2900 -90.2539 267° West 138 159 6,000  Level Memphis Center
09:15AM 36.2900 -90.2978 270° West 138 159 6,000  Level Memphis Center
09:16AM 36.2878 -90.3442 267° West 138 159 6,000  Level Memphis Center
09:17AM 36.2878 -90.3878 270° West 138 159 6,000  Level Memphis Center
09:18AM 36.2858 -90.4317 267° West 138 159 6,000 -60 Level Memphis Center
09:19AM 36.2858 -90.4756 270° West 138 159 5,900  Descending Memphis Center
09:20AM 36.2836 -90.5192 266° West 138 159 6,000  Climbing Memphis Center
09:21AM 36.2836 -90.5631 270° West 138 159 6,000  Level Memphis Center
09:22AM 36.2814 -90.6092 267° West 138 159 6,000  Level Memphis Center
09:23AM 36.2792 -90.6531 266° West 138 159 6,000  Level Memphis Center
09:24AM 36.2792 -90.6967 270° West 138 159 6,000  Level Memphis Center
09:25AM 36.2831 -90.7406 276° West 138 159 6,000  Level Memphis Center
09:26AM 36.2831 -90.7844 270° West 138 159 6,000  Level Memphis Center
09:27AM 36.2850 -90.8281 273° West 138 159 6,000  Level Memphis Center
09:28AM 36.2869 -90.8719 273° West 138 159 6,000  Level Memphis Center
09:29AM 36.2844 -90.9156 266° West 138 159 6,000  Level Memphis Center
09:30AM 36.2906 -90.9619 279° West 138 159 6,000  Level Memphis Center
09:31AM 36.2925 -91.0058 273° West 138 159 6,000  Level Memphis Center
09:32AM 36.2944 -91.0469 273° West 138 159 6,000  Level Memphis Center
09:33AM 36.3025 -91.0961 282° West 138 159 6,000  Level Memphis Center
09:34AM 36.3022 -91.1397 270° West 138 159 6,000  Level Memphis Center
09:35AM 36.3061 -91.1836 276° West 133 153 6,000  Level Memphis Center
09:36AM 36.3058 -91.2275 270° West 133 153 6,000 -60 Level Memphis Center
09:37AM 36.3094 -91.2711 276° West 133 153 5,900 -60 Descending Memphis Center
09:38AM 36.3114 -91.3150 273° West 133 153 5,900  Level Memphis Center
09:39AM 36.3153 -91.3589 276° West 133 153 5,900  Level Memphis Center
09:40AM 36.3169 -91.4028 273° West 138 159 5,900  Level Memphis Center
09:41AM 36.3144 -91.4464 266° West 138 159 5,900  Level Memphis Center
09:42AM 36.3181 -91.4928 276° West 138 159 5,900  Level Memphis Center
09:43AM 36.3200 -91.5367 273° West 138 159 5,900  Level Memphis Center
09:44AM 36.3236 -91.5806 276° West 138 159 6,000  Climbing Memphis Center
09:45AM 36.3189 -91.6269 263° West 138 159 6,000  Level Memphis Center
09:46AM 36.3228 -91.6706 276° West 138 159 6,000  Level Memphis Center
09:47AM 36.3203 -91.7144 266° West 138 159 6,000  Level Memphis Center
09:48AM 36.3219 -91.7506 273° West 138 159 6,000  Level Memphis Center
09:49AM 36.3275 -91.7994 278° West 138 159 6,000  Level Memphis Center
09:50AM 36.3250 -91.8406 266° West 133 153 6,000  Level Memphis Center
09:51AM 36.3244 -91.8897 269° West 133 153 6,000  Level Memphis Center
09:52AM 36.3217 -91.9333 265° West 133 153 6,000  Level Memphis Center
09:53AM 36.3211 -91.9772 269° West 133 153 6,000  Level Memphis Center
09:54AM 36.3206 -92.0208 269° West 138 159 6,000  Level Memphis Center
09:55AM 36.3200 -92.0697 269° West 138 159 6,000  Level Memphis Center
09:56AM 36.3194 -92.1111 269° West 138 159 6,000  Level Memphis Center
09:57AM 36.3167 -92.1572 266° West 138 159 6,000  Level Memphis Center
09:58AM 36.3119 -92.2011 262° West 138 159 6,000  Level Memphis Center
09:59AM 36.3111 -92.2475 269° West 138 159 6,000  Level Memphis Center
10:00AM 36.3042 -92.2911 259° West 147 169 6,000  Level Memphis Center
10:01AM 36.2994 -92.3347 262° West 140 161 6,000  Level Memphis Center
10:02AM 36.2967 -92.3783 265° West 135 155 6,000  Level Memphis Center
10:03AM 36.2917 -92.4219 262° West 135 155 6,000  Level Memphis Center
10:04AM 36.2847 -92.4683 259° West 140 161 6,000  Level Memphis Center
10:05AM 36.2819 -92.5119 265° West 140 161 6,000  Level Memphis Center
10:06AM 36.2728 -92.5553 255° West 140 161 6,000  Level Memphis Center
10:07AM 36.2678 -92.5989 262° West 140 161 6,100  Climbing Memphis Center
10:08AM 36.2628 -92.6428 262° West 140 161 6,100  Level Memphis Center
10:09AM 36.2600 -92.6889 266° West 140 161 6,100 -60 Level Memphis Center
10:10AM 36.2653 -92.7328 278° West 140 161 6,000 -60 Descending Memphis Center
10:11AM 36.2750 -92.7742 286° West 140 161 6,000 -60 Level Memphis Center
10:12AM 36.2867 -92.8183 288° West 140 161 5,900 -60 Descending Memphis Center
10:13AM 36.2961 -92.8625 285° West 140 161 5,900 -60 Level Memphis Center
10:14AM 36.3056 -92.9092 284° West 140 161 5,800 -60 Descending Memphis Center
10:15AM 36.3131 -92.9506 283° West 140 161 5,800 -60 Level Memphis Center
10:16AM 36.3247 -92.9922 289° West 140 161 5,700  Descending Memphis Center
10:17AM 36.3278 -93.0386 275° West 140 161 5,900 120 Climbing Memphis Center
10:18AM 36.3311 -93.0800 276° West 135 155 6,000  Climbing Memphis Center
10:19AM 36.3322 -93.1236 272° West 135 155 6,000  Level Memphis Center
10:20AM 36.3333 -93.1675 272° West 135 155 6,000 -60 Level Memphis Center
10:21AM 36.3344 -93.2139 272° West 135 155 5,900 -60 Descending Memphis Center
10:22AM 36.3356 -93.2578 272° West 135 155 5,900  Level Memphis Center
10:23AM 36.3386 -93.3044 275° West 140 161 5,900  Level Memphis Center
10:24AM 36.3375 -93.3481 268° West 140 161 5,900  Level Memphis Center
10:25AM 36.3386 -93.3919 272° West 140 161 5,900 -120 Level Memphis Center
10:26AM 36.3397 -93.4358 272° West 140 161 5,700 -300 Descending Memphis Center
10:27AM 36.3383 -93.4872 268° West 145 167 5,300 -420 Descending Memphis Center
10:28AM 36.3392 -93.5336 271° West 140 161 4,900 -240 Descending Memphis Center
10:29AM 36.3403 -93.5747 272° West 140 161 4,900 -240 Level Memphis Center
10:30AM 36.3389 -93.6239 268° West 140 161 4,500 -480 Descending Memphis Center
10:31AM 36.3419 -93.6703 275° West 140 161 4,000 -300 Descending Memphis Center
10:32AM 36.3450 -93.7142 275° West 140 161 3,900  Descending Memphis Center
10:33AM 36.3481 -93.7556 275° West 135 155 4,000 60 Climbing Memphis Center
10:34AM 36.3511 -93.7969 275° West 130 150 4,100 60 Climbing Memphis Center
10:36AM 36.3333 -93.8755 270° West  Level FlightAware Approximate
10:43AM 36.3334 -94.1818 270° West  Level FlightAware Approximate
10:44AM 36.3333 -94.2167 270° West  Level FlightAware Approximate
10:45AM 36.3452 -94.2193 270° West  Level Estimated
10:46AM 36.3452 -94.2193 270° West  Level Estimated
10:47AM 36.3452 -94.2193 270° West  Level Estimated
10:48AM 36.3452 -94.2193 270° West  Level Estimated
10:49AM 36.3452 -94.2193 270° West  Level Estimated
10:50AM 36.3452 -94.2193 270° West  Level Estimated
10:51AM 36.3452 -94.2193 270° West  Level Estimated
10:52AM 36.3452 -94.2193 270° West  Level Estimated
10:53AM 36.3452 -94.2193 270° West  Level Estimated
10:54AM 36.3452 -94.2193 270° West  Level Estimated
10:55AM 36.3452 -94.2193 270° West  Level Estimated